createdAt,value
2017-11-04T00:01:09.472Z,61.52
2017-11-04T00:03:10.753Z,61.50
2017-11-04T00:05:12.372Z,61.46
2017-11-04T00:07:13.737Z,61.57
2017-11-04T00:09:15.106Z,61.60
2017-11-04T00:11:16.440Z,61.57
2017-11-04T00:13:18.814Z,61.63
2017-11-04T00:15:21.263Z,61.66
2017-11-04T00:17:22.808Z,61.57
2017-11-04T00:19:24.955Z,61.59
2017-11-04T00:21:26.613Z,61.64
2017-11-04T00:23:27.964Z,61.61
2017-11-04T00:25:29.413Z,61.68
2017-11-04T00:27:31.068Z,61.72
2017-11-04T00:29:32.400Z,61.72
2017-11-04T00:31:33.755Z,61.71
2017-11-04T00:33:35.283Z,61.73
2017-11-04T00:35:36.569Z,61.73
2017-11-04T00:37:38.003Z,61.70
2017-11-04T00:39:39.535Z,61.75
2017-11-04T00:41:40.983Z,61.75
2017-11-04T00:43:42.331Z,61.75
2017-11-04T00:45:43.893Z,61.82
2017-11-04T00:47:45.136Z,61.78
2017-11-04T00:49:46.675Z,61.80
2017-11-04T00:51:48.141Z,61.82
2017-11-04T00:53:49.674Z,61.83
2017-11-04T00:55:51.235Z,61.81
2017-11-04T00:57:53.714Z,61.86
2017-11-04T00:59:55.042Z,61.81
2017-11-04T01:01:56.493Z,61.76
2017-11-04T01:03:57.805Z,61.76
2017-11-04T01:05:59.200Z,61.86
2017-11-04T01:08:00.429Z,61.85
2017-11-04T01:10:02.005Z,61.86
2017-11-04T01:12:03.552Z,61.87
2017-11-04T01:14:04.977Z,61.83
2017-11-04T01:16:06.265Z,61.93
2017-11-04T01:18:07.671Z,61.85
2017-11-04T01:20:08.938Z,61.89
2017-11-04T01:22:10.317Z,61.93
2017-11-04T01:24:12.324Z,61.95
2017-11-04T01:26:13.981Z,61.85
2017-11-04T01:28:15.645Z,61.86
2017-11-04T01:30:16.960Z,61.93
2017-11-04T01:32:18.339Z,61.85
2017-11-04T01:34:19.654Z,61.72
2017-11-04T01:36:20.934Z,61.66
2017-11-04T01:38:23.160Z,61.54
2017-11-04T01:40:24.478Z,61.48
2017-11-04T01:42:26.481Z,61.31
2017-11-04T01:44:27.824Z,61.29
2017-11-04T01:46:29.276Z,61.17
2017-11-04T01:48:30.956Z,61.06
2017-11-04T01:50:33.212Z,61.00
2017-11-04T01:52:34.539Z,60.94
2017-11-04T01:54:37.224Z,60.86
2017-11-04T01:56:38.534Z,60.90
2017-11-04T01:58:39.866Z,60.78
2017-11-04T02:00:41.272Z,60.76
2017-11-04T02:02:43.521Z,60.71
2017-11-04T02:04:44.841Z,60.72
2017-11-04T02:06:46.082Z,60.70
2017-11-04T02:08:48.179Z,60.72
2017-11-04T02:10:49.454Z,60.67
2017-11-04T02:12:50.796Z,60.66
2017-11-04T02:14:52.211Z,60.68
2017-11-04T02:16:53.776Z,60.68
2017-11-04T02:18:55.221Z,60.66
2017-11-04T02:20:56.503Z,60.69
2017-11-04T02:22:57.837Z,60.66
2017-11-04T02:24:59.147Z,60.65
2017-11-04T02:27:00.531Z,60.60
2017-11-04T02:29:02.158Z,60.62
2017-11-04T02:31:03.711Z,60.68
2017-11-04T02:33:05.138Z,60.67
2017-11-04T02:35:06.585Z,60.64
2017-11-04T02:37:09.164Z,60.62
2017-11-04T02:39:10.443Z,60.69
2017-11-04T02:41:12.171Z,60.73
2017-11-04T02:43:13.511Z,60.77
2017-11-04T02:45:14.958Z,60.89
2017-11-04T02:47:16.478Z,60.92
2017-11-04T02:49:17.751Z,60.98
2017-11-04T02:51:19.309Z,61.05
2017-11-04T02:53:20.602Z,61.01
2017-11-04T02:55:21.940Z,61.09
2017-11-04T02:57:24.776Z,61.16
2017-11-04T02:59:26.081Z,61.13
2017-11-04T03:01:27.410Z,61.22
2017-11-04T03:03:29.423Z,61.28
2017-11-04T03:05:30.878Z,61.29
2017-11-04T03:07:33.008Z,61.32
2017-11-04T03:09:35.927Z,61.29
2017-11-04T03:11:37.482Z,61.29
2017-11-04T03:13:38.919Z,61.28
2017-11-04T03:15:40.186Z,61.27
2017-11-04T03:17:41.468Z,61.37
2017-11-04T03:19:42.849Z,61.31
2017-11-04T03:21:44.513Z,61.31
2017-11-04T03:23:45.838Z,61.36
2017-11-04T03:25:47.415Z,61.36
2017-11-04T03:27:49.060Z,61.40
2017-11-04T03:29:50.505Z,61.38
2017-11-04T03:31:51.856Z,61.36
2017-11-04T03:33:53.248Z,61.39
2017-11-04T03:35:54.656Z,61.40
2017-11-04T03:37:55.918Z,61.43
2017-11-04T03:39:57.352Z,61.41
2017-11-04T03:41:58.680Z,61.42
2017-11-04T03:43:59.946Z,61.36
2017-11-04T03:46:01.988Z,61.42
2017-11-04T03:48:03.336Z,61.43
2017-11-04T03:50:04.702Z,61.50
2017-11-04T03:52:06.132Z,61.46
2017-11-04T03:54:07.600Z,61.43
2017-11-04T03:56:08.921Z,61.48
2017-11-04T03:58:10.852Z,61.49
2017-11-04T04:00:12.191Z,61.53
2017-11-04T04:02:13.576Z,61.52
2017-11-04T04:04:15.031Z,61.46
2017-11-04T04:06:16.589Z,61.52
2017-11-04T04:08:18.016Z,61.59
2017-11-04T04:10:19.355Z,61.60
2017-11-04T04:12:20.604Z,61.60
2017-11-04T04:14:23.179Z,61.58
2017-11-04T04:16:24.531Z,61.58
2017-11-04T04:18:25.824Z,61.62
2017-11-04T04:20:27.322Z,61.64
2017-11-04T04:22:29.759Z,61.63
2017-11-04T04:24:31.343Z,61.66
2017-11-04T04:26:32.805Z,61.62
2017-11-04T04:28:34.253Z,61.67
2017-11-04T04:30:35.589Z,61.68
2017-11-04T04:32:37.136Z,61.67
2017-11-04T04:34:38.431Z,61.72
2017-11-04T04:36:40.037Z,61.71
2017-11-04T04:38:42.202Z,61.71
2017-11-04T04:40:44.467Z,61.74
2017-11-04T04:42:45.803Z,61.73
2017-11-04T04:44:47.648Z,61.72
2017-11-04T04:46:48.936Z,61.73
2017-11-04T04:48:50.261Z,61.67
2017-11-04T04:50:51.600Z,61.65
2017-11-04T04:52:52.962Z,61.53
2017-11-04T04:54:55.228Z,61.38
2017-11-04T04:56:56.635Z,61.28
2017-11-04T04:58:58.015Z,61.19
2017-11-04T05:00:59.865Z,61.12
2017-11-04T05:03:01.243Z,61.13
2017-11-04T05:05:02.672Z,60.93
2017-11-04T05:07:04.033Z,60.82
2017-11-04T05:09:06.377Z,60.81
2017-11-04T05:11:08.324Z,60.74
2017-11-04T05:13:09.797Z,60.77
2017-11-04T05:15:11.241Z,60.71
2017-11-04T05:17:12.688Z,60.69
2017-11-04T05:19:14.135Z,60.68
2017-11-04T05:21:15.586Z,60.70
2017-11-04T05:23:17.047Z,60.70
2017-11-04T05:25:18.478Z,60.58
2017-11-04T05:27:19.916Z,60.64
2017-11-04T05:29:21.211Z,60.67
2017-11-04T05:31:22.597Z,60.67
2017-11-04T05:33:24.081Z,60.60
2017-11-04T05:35:25.531Z,60.64
2017-11-04T05:37:31.268Z,60.63
2017-11-04T05:39:32.942Z,60.68
2017-11-04T05:41:35.601Z,60.60
2017-11-04T05:43:37.048Z,60.65
2017-11-04T05:45:38.811Z,60.66
2017-11-04T05:47:40.971Z,60.67
2017-11-04T05:49:42.525Z,60.70
2017-11-04T05:51:44.792Z,60.69
2017-11-04T05:53:46.235Z,60.77
2017-11-04T05:55:47.575Z,60.88
2017-11-04T05:57:48.926Z,60.95
2017-11-04T05:59:50.395Z,61.06
2017-11-04T06:01:52.029Z,61.12
2017-11-04T06:03:53.483Z,61.16
2017-11-04T06:05:54.801Z,61.19
2017-11-04T06:07:56.374Z,61.29
2017-11-04T06:09:58.021Z,61.33
2017-11-04T06:11:59.378Z,61.40
2017-11-04T06:14:01.025Z,61.46
2017-11-04T06:16:02.283Z,61.48
2017-11-04T06:18:03.602Z,61.55
2017-11-04T06:20:05.054Z,61.56
2017-11-04T06:22:06.403Z,61.54
2017-11-04T06:24:07.762Z,61.56
2017-11-04T06:26:09.400Z,61.62
2017-11-04T06:28:10.961Z,61.68
2017-11-04T06:30:12.508Z,61.76
2017-11-04T06:32:14.171Z,61.72
2017-11-04T06:34:15.593Z,61.71
2017-11-04T06:36:16.956Z,61.76
2017-11-04T06:38:18.420Z,61.78
2017-11-04T06:40:19.847Z,61.89
2017-11-04T06:42:21.196Z,61.90
2017-11-04T06:44:22.988Z,61.93
2017-11-04T06:46:24.291Z,61.91
2017-11-04T06:48:28.138Z,61.97
2017-11-04T06:50:29.661Z,61.98
2017-11-04T06:52:30.989Z,61.99
2017-11-04T06:54:32.644Z,62.07
2017-11-04T06:56:34.000Z,62.09
2017-11-04T06:58:35.317Z,62.09
2017-11-04T07:00:37.295Z,62.07
2017-11-04T07:02:38.954Z,62.08
2017-11-04T07:04:40.408Z,62.12
2017-11-04T07:06:42.368Z,62.08
2017-11-04T07:08:43.828Z,62.13
2017-11-04T07:10:45.489Z,62.24
2017-11-04T07:12:47.026Z,62.20
2017-11-04T07:14:48.679Z,62.23
2017-11-04T07:16:50.314Z,62.18
2017-11-04T07:18:51.869Z,62.17
2017-11-04T07:20:53.394Z,62.19
2017-11-04T07:22:54.722Z,62.21
2017-11-04T07:24:56.847Z,62.28
2017-11-04T07:26:58.490Z,62.28
2017-11-04T07:28:59.923Z,62.27
2017-11-04T07:31:01.267Z,62.28
2017-11-04T07:33:02.598Z,62.30
2017-11-04T07:35:04.692Z,62.31
2017-11-04T07:37:06.133Z,62.32
2017-11-04T07:39:08.193Z,62.35
2017-11-04T07:41:09.753Z,62.34
2017-11-04T07:43:11.206Z,62.34
2017-11-04T07:45:12.842Z,62.38
2017-11-04T07:47:14.180Z,62.40
2017-11-04T07:49:15.699Z,62.37
2017-11-04T07:51:17.814Z,62.37
2017-11-04T07:53:19.142Z,62.41
2017-11-04T07:55:20.607Z,62.46
2017-11-04T07:57:22.081Z,62.47
2017-11-04T07:59:23.607Z,62.57
2017-11-04T08:01:25.256Z,62.47
2017-11-04T08:03:26.810Z,62.48
2017-11-04T08:05:28.361Z,62.49
2017-11-04T08:07:29.709Z,62.46
2017-11-04T08:09:35.049Z,62.35
2017-11-04T08:11:36.692Z,62.33
2017-11-04T08:13:38.039Z,62.27
2017-11-04T08:15:39.596Z,62.03
2017-11-04T08:17:41.152Z,61.95
2017-11-04T08:19:42.711Z,61.97
2017-11-04T08:21:44.114Z,61.82
2017-11-04T08:23:45.579Z,61.77
2017-11-04T08:25:47.259Z,61.82
2017-11-04T08:27:48.689Z,61.69
2017-11-04T08:29:50.152Z,61.73
2017-11-04T08:31:51.781Z,61.67
2017-11-04T08:33:53.361Z,61.67
2017-11-04T08:35:54.682Z,61.67
2017-11-04T08:37:56.310Z,61.67
2017-11-04T08:39:58.278Z,61.66
2017-11-04T08:42:00.049Z,61.66
2017-11-04T08:44:01.706Z,61.74
2017-11-04T08:46:03.449Z,61.65
2017-11-04T08:48:05.014Z,61.59
2017-11-04T08:50:06.775Z,61.67
2017-11-04T08:52:08.318Z,61.63
2017-11-04T08:54:09.874Z,61.66
2017-11-04T08:56:11.410Z,61.72
2017-11-04T08:58:13.082Z,61.76
2017-11-04T09:00:14.838Z,61.75
2017-11-04T09:02:16.487Z,61.64
2017-11-04T09:04:18.052Z,61.73
2017-11-04T09:06:19.585Z,61.81
2017-11-04T09:08:21.135Z,61.85
2017-11-04T09:10:22.697Z,61.90
2017-11-04T09:12:24.260Z,61.96
2017-11-04T09:14:25.717Z,62.02
2017-11-04T09:16:27.437Z,62.12
2017-11-04T09:18:29.008Z,62.15
2017-11-04T09:20:30.340Z,62.30
2017-11-04T09:22:31.896Z,62.32
2017-11-04T09:24:33.555Z,62.39
2017-11-04T09:26:35.307Z,62.47
2017-11-04T09:28:36.858Z,62.49
2017-11-04T09:30:38.407Z,62.54
2017-11-04T09:32:40.155Z,62.59
2017-11-04T09:34:41.616Z,62.61
2017-11-04T09:36:43.157Z,62.72
2017-11-04T09:38:44.707Z,62.72
2017-11-04T09:40:46.363Z,62.81
2017-11-04T09:42:47.808Z,62.90
2017-11-04T09:44:49.563Z,62.92
2017-11-04T09:46:51.453Z,62.94
2017-11-04T09:48:53.201Z,63.00
2017-11-04T09:50:54.823Z,63.01
2017-11-04T09:52:56.285Z,63.04
2017-11-04T09:54:57.917Z,63.07
2017-11-04T09:56:59.374Z,63.14
2017-11-04T09:59:01.130Z,63.20
2017-11-04T10:01:02.789Z,63.19
2017-11-04T10:03:04.441Z,63.26
2017-11-04T10:05:06.409Z,63.29
2017-11-04T10:07:07.940Z,63.34
2017-11-04T10:09:09.510Z,63.33
2017-11-04T10:11:11.394Z,63.38
2017-11-04T10:13:12.678Z,63.39
2017-11-04T10:15:14.668Z,63.46
2017-11-04T10:17:16.209Z,63.50
2017-11-04T10:19:17.870Z,63.51
2017-11-04T10:21:19.626Z,63.53
2017-11-04T10:23:21.377Z,63.53
2017-11-04T10:25:22.917Z,63.55
2017-11-04T10:27:24.903Z,63.60
2017-11-04T10:29:26.857Z,63.65
2017-11-04T10:31:28.502Z,63.65
2017-11-04T10:33:30.372Z,63.70
2017-11-04T10:35:32.027Z,63.70
2017-11-04T10:37:33.684Z,63.75
2017-11-04T10:39:35.208Z,63.76
2017-11-04T10:41:38.713Z,63.82
2017-11-04T10:43:40.476Z,63.83
2017-11-04T10:45:42.121Z,63.79
2017-11-04T10:47:43.818Z,63.92
2017-11-04T10:49:45.336Z,63.89
2017-11-04T10:51:46.872Z,63.84
2017-11-04T10:53:50.184Z,63.96
2017-11-04T10:55:51.927Z,63.95
2017-11-04T10:57:53.585Z,63.92
2017-11-04T10:59:55.114Z,63.97
2017-11-04T11:01:56.880Z,63.96
2017-11-04T11:03:58.743Z,64.04
2017-11-04T11:06:00.706Z,64.07
2017-11-04T11:08:02.661Z,64.09
2017-11-04T11:10:04.829Z,64.11
2017-11-04T11:12:06.466Z,64.08
2017-11-04T11:14:08.246Z,64.01
2017-11-04T11:16:09.824Z,64.08
2017-11-04T11:18:11.641Z,64.02
2017-11-04T11:20:13.441Z,64.15
2017-11-04T11:22:15.148Z,64.11
2017-11-04T11:24:17.101Z,64.14
2017-11-04T11:26:18.755Z,64.05
2017-11-04T11:28:20.651Z,63.96
2017-11-04T11:30:23.024Z,63.86
2017-11-04T11:32:24.752Z,63.83
2017-11-04T11:34:26.593Z,63.76
2017-11-04T11:36:28.679Z,63.70
2017-11-04T11:38:30.761Z,63.61
2017-11-04T11:40:32.450Z,63.57
2017-11-04T11:42:34.240Z,63.43
2017-11-04T11:44:35.892Z,63.43
2017-11-04T11:46:37.625Z,63.41
2017-11-04T11:48:39.413Z,63.35
2017-11-04T11:50:41.377Z,63.41
2017-11-04T11:52:43.327Z,63.37
2017-11-04T11:54:44.987Z,63.32
2017-11-04T11:56:46.641Z,63.44
2017-11-04T11:58:48.294Z,63.41
2017-11-04T12:00:50.149Z,63.44
2017-11-04T12:02:52.007Z,63.45
2017-11-04T12:04:53.548Z,63.43
2017-11-04T12:06:55.302Z,63.35
2017-11-04T12:08:58.309Z,63.38
2017-11-04T12:11:00.161Z,63.39
2017-11-04T12:13:02.017Z,63.35
2017-11-04T12:15:03.970Z,63.29
2017-11-04T12:17:05.721Z,63.20
2017-11-04T12:19:08.084Z,63.23
2017-11-04T12:21:09.882Z,63.18
2017-11-04T12:23:11.721Z,63.14
2017-11-04T12:25:13.565Z,63.29
2017-11-04T12:27:15.232Z,63.24
2017-11-04T12:29:17.092Z,63.29
2017-11-04T12:31:18.839Z,63.35
2017-11-04T12:33:20.693Z,63.43
2017-11-04T12:35:22.460Z,63.53
2017-11-04T12:37:24.206Z,63.69
2017-11-04T12:39:26.068Z,63.75
2017-11-04T12:41:27.928Z,63.76
2017-11-04T12:43:29.671Z,63.77
2017-11-04T12:45:31.431Z,63.94
2017-11-04T12:47:33.279Z,63.95
2017-11-04T12:49:35.139Z,63.98
2017-11-04T12:51:36.994Z,64.12
2017-11-04T12:53:42.525Z,64.15
2017-11-04T12:55:44.723Z,64.20
2017-11-04T12:57:46.570Z,64.27
2017-11-04T12:59:48.116Z,64.33
2017-11-04T13:01:49.879Z,64.34
2017-11-04T13:03:51.734Z,64.43
2017-11-04T13:05:53.595Z,64.44
2017-11-04T13:07:55.471Z,64.48
2017-11-04T13:09:57.404Z,64.49
2017-11-04T13:12:00.116Z,64.53
2017-11-04T13:14:02.158Z,64.47
2017-11-04T13:16:03.989Z,64.55
2017-11-04T13:18:05.797Z,64.58
2017-11-04T13:20:07.726Z,64.60
2017-11-04T13:22:09.463Z,64.64
2017-11-04T13:24:10.917Z,64.58
2017-11-04T13:26:12.688Z,64.65
2017-11-04T13:28:14.245Z,64.64
2017-11-04T13:30:15.947Z,64.76
2017-11-04T13:32:17.811Z,64.73
2017-11-04T13:34:19.711Z,64.74
2017-11-04T13:36:21.253Z,64.68
2017-11-04T13:38:23.633Z,64.71
2017-11-04T13:40:25.299Z,64.76
2017-11-04T13:42:26.928Z,64.77
2017-11-04T13:44:28.665Z,64.87
2017-11-04T13:46:30.557Z,64.89
2017-11-04T13:48:32.361Z,64.85
2017-11-04T13:50:34.359Z,64.90
2017-11-04T13:52:36.129Z,64.90
2017-11-04T13:54:37.975Z,64.90
2017-11-04T13:56:39.847Z,64.94
2017-11-04T13:58:41.578Z,65.05
2017-11-04T14:00:43.331Z,65.03
2017-11-04T14:02:45.226Z,65.08
2017-11-04T14:04:46.882Z,65.10
2017-11-04T14:06:48.717Z,65.13
2017-11-04T14:08:50.341Z,65.14
2017-11-04T14:10:52.024Z,65.18
2017-11-04T14:12:53.776Z,65.16
2017-11-04T14:14:55.326Z,65.19
2017-11-04T14:16:56.978Z,65.23
2017-11-04T14:18:58.725Z,65.26
2017-11-04T14:21:01.435Z,65.26
2017-11-04T14:23:03.485Z,65.26
2017-11-04T14:25:05.246Z,65.24
2017-11-04T14:27:07.087Z,65.27
2017-11-04T14:29:08.837Z,65.27
2017-11-04T14:31:10.688Z,65.36
2017-11-04T14:33:12.563Z,65.36
2017-11-04T14:35:14.085Z,65.34
2017-11-04T14:37:15.873Z,65.33
2017-11-04T14:39:18.032Z,65.31
2017-11-04T14:41:19.788Z,65.27
2017-11-04T14:43:21.657Z,65.30
2017-11-04T14:45:23.510Z,65.34
2017-11-04T14:47:25.152Z,65.24
2017-11-04T14:49:26.727Z,65.09
2017-11-04T14:51:28.521Z,64.96
2017-11-04T14:53:30.466Z,64.83
2017-11-04T14:55:32.384Z,64.75
2017-11-04T14:57:34.248Z,64.59
2017-11-04T14:59:36.175Z,64.47
2017-11-04T15:01:37.947Z,64.42
2017-11-04T15:03:39.700Z,64.36
2017-11-04T15:05:43.611Z,64.27
2017-11-04T15:07:45.356Z,64.22
2017-11-04T15:09:47.114Z,64.21
2017-11-04T15:11:48.762Z,64.09
2017-11-04T15:13:50.424Z,64.14
2017-11-04T15:15:52.215Z,64.15
2017-11-04T15:17:53.935Z,64.11
2017-11-04T15:19:55.527Z,64.21
2017-11-04T15:21:57.385Z,64.46
2017-11-04T15:23:59.195Z,64.11
2017-11-04T15:26:01.166Z,63.90
2017-11-04T15:28:02.920Z,63.75
2017-11-04T15:30:04.466Z,63.71
2017-11-04T15:32:06.115Z,63.77
2017-11-04T15:34:07.672Z,63.79
2017-11-04T15:36:09.424Z,63.77
2017-11-04T15:38:11.205Z,63.72
2017-11-04T15:40:12.929Z,63.80
2017-11-04T15:42:14.619Z,63.82
2017-11-04T15:44:16.584Z,63.78
2017-11-04T15:46:17.971Z,63.81
2017-11-04T15:48:19.674Z,63.83
2017-11-04T15:50:21.391Z,63.85
2017-11-04T15:52:23.131Z,63.89
2017-11-04T15:54:24.709Z,63.90
2017-11-04T15:56:26.363Z,63.99
2017-11-04T15:58:28.130Z,64.04
2017-11-04T16:00:29.771Z,64.08
2017-11-04T16:02:31.424Z,64.19
2017-11-04T16:04:33.212Z,64.25
2017-11-04T16:06:34.712Z,64.32
2017-11-04T16:08:37.295Z,64.38
2017-11-04T16:10:39.161Z,64.44
2017-11-04T16:12:41.326Z,64.52
2017-11-04T16:14:42.965Z,64.59
2017-11-04T16:16:44.741Z,64.60
2017-11-04T16:18:46.377Z,64.66
2017-11-04T16:20:47.950Z,64.78
2017-11-04T16:22:49.595Z,64.78
2017-11-04T16:24:51.254Z,64.86
2017-11-04T16:26:52.900Z,64.86
2017-11-04T16:28:54.662Z,64.99
2017-11-04T16:30:56.202Z,64.99
2017-11-04T16:32:57.963Z,65.07
2017-11-04T16:34:59.505Z,65.12
2017-11-04T16:37:01.165Z,65.15
2017-11-04T16:39:03.126Z,65.21
2017-11-04T16:41:04.787Z,65.28
2017-11-04T16:43:06.531Z,65.26
2017-11-04T16:45:08.407Z,65.32
2017-11-04T16:47:10.040Z,65.30
2017-11-04T16:49:11.809Z,65.35
2017-11-04T16:51:13.354Z,65.39
2017-11-04T16:53:15.030Z,65.48
2017-11-04T16:55:16.976Z,65.45
2017-11-04T16:57:18.637Z,65.50
2017-11-04T16:59:20.157Z,65.55
2017-11-04T17:01:22.529Z,65.56
2017-11-04T17:03:24.157Z,65.62
2017-11-04T17:05:26.883Z,65.63
2017-11-04T17:07:28.509Z,65.65
2017-11-04T17:09:30.194Z,65.70
2017-11-04T17:11:32.031Z,65.71
2017-11-04T17:13:33.576Z,65.73
2017-11-04T17:15:35.336Z,65.77
2017-11-04T17:17:36.898Z,65.75
2017-11-04T17:19:38.436Z,65.78
2017-11-04T17:21:39.796Z,65.83
2017-11-04T17:23:41.559Z,65.76
2017-11-04T17:25:43.194Z,65.80
2017-11-04T17:27:44.930Z,65.84
2017-11-04T17:29:47.946Z,65.81
2017-11-04T17:31:49.506Z,65.85
2017-11-04T17:33:51.129Z,65.87
2017-11-04T17:35:52.897Z,65.85
2017-11-04T17:37:54.653Z,65.84
2017-11-04T17:39:56.615Z,65.86
2017-11-04T17:41:58.243Z,65.89
2017-11-04T17:44:00.023Z,65.95
2017-11-04T17:46:01.459Z,65.94
2017-11-04T17:48:03.314Z,65.96
2017-11-04T17:50:05.077Z,65.97
2017-11-04T17:52:06.825Z,65.96
2017-11-04T17:54:08.576Z,65.99
2017-11-04T17:56:10.344Z,66.03
2017-11-04T17:58:12.006Z,66.08
2017-11-04T18:00:13.744Z,66.12
2017-11-04T18:02:15.419Z,66.19
2017-11-04T18:04:17.161Z,66.20
2017-11-04T18:06:18.808Z,66.10
2017-11-04T18:08:20.461Z,66.09
2017-11-04T18:10:22.218Z,65.98
2017-11-04T18:12:23.851Z,65.90
2017-11-04T18:14:25.533Z,65.81
2017-11-04T18:16:27.167Z,65.76
2017-11-04T18:18:29.003Z,65.72
2017-11-04T18:20:30.696Z,65.74
2017-11-04T18:22:32.639Z,65.70
2017-11-04T18:24:34.615Z,65.58
2017-11-04T18:26:36.161Z,65.57
2017-11-04T18:28:37.812Z,65.53
2017-11-04T18:30:39.365Z,65.51
2017-11-04T18:32:40.938Z,65.54
2017-11-04T18:34:42.557Z,65.52
2017-11-04T18:36:44.333Z,65.54
2017-11-04T18:38:45.978Z,65.47
2017-11-04T18:40:48.241Z,65.49
2017-11-04T18:42:49.890Z,65.49
2017-11-04T18:44:51.659Z,65.50
2017-11-04T18:46:53.723Z,65.59
2017-11-04T18:48:55.376Z,65.55
2017-11-04T18:50:57.120Z,65.60
2017-11-04T18:52:58.777Z,65.69
2017-11-04T18:55:00.626Z,65.69
2017-11-04T18:57:02.188Z,65.67
2017-11-04T18:59:03.864Z,65.64
2017-11-04T19:01:05.388Z,65.65
2017-11-04T19:03:07.146Z,65.67
2017-11-04T19:05:08.711Z,65.67
2017-11-04T19:07:11.281Z,65.70
2017-11-04T19:09:13.011Z,65.81
2017-11-04T19:11:14.666Z,65.92
2017-11-04T19:13:16.327Z,65.92
2017-11-04T19:15:17.988Z,66.01
2017-11-04T19:17:19.742Z,66.11
2017-11-04T19:19:21.395Z,66.15
2017-11-04T19:21:23.047Z,66.25
2017-11-04T19:23:24.708Z,66.32
2017-11-04T19:25:26.465Z,66.39
2017-11-04T19:27:28.208Z,66.46
2017-11-04T19:29:29.870Z,66.56
2017-11-04T19:31:31.520Z,66.54
2017-11-04T19:33:33.173Z,66.60
2017-11-04T19:35:34.607Z,66.74
2017-11-04T19:37:36.259Z,66.73
2017-11-04T19:39:38.006Z,66.75
2017-11-04T19:41:40.800Z,66.77
2017-11-04T19:43:42.563Z,66.86
2017-11-04T19:45:44.213Z,66.85
2017-11-04T19:47:45.869Z,66.89
2017-11-04T19:49:47.621Z,66.92
2017-11-04T19:51:49.270Z,66.98
2017-11-04T19:53:52.464Z,67.01
2017-11-04T19:55:54.248Z,67.06
2017-11-04T19:57:56.189Z,67.06
2017-11-04T19:59:57.837Z,67.11
2017-11-04T20:01:59.585Z,67.11
2017-11-04T20:04:01.245Z,67.09
2017-11-04T20:06:02.909Z,67.12
2017-11-04T20:08:04.743Z,67.10
2017-11-04T20:10:06.511Z,67.15
2017-11-04T20:12:08.048Z,67.13
2017-11-04T20:14:09.709Z,67.11
2017-11-04T20:16:11.565Z,67.20
2017-11-04T20:18:13.210Z,67.26
2017-11-04T20:20:14.692Z,67.23
2017-11-04T20:22:16.208Z,67.23
2017-11-04T20:24:17.772Z,67.25
2017-11-04T20:26:19.418Z,67.29
2017-11-04T20:28:22.009Z,67.30
2017-11-04T20:30:23.633Z,67.25
2017-11-04T20:32:25.490Z,67.30
2017-11-04T20:34:26.986Z,67.37
2017-11-04T20:36:28.619Z,67.32
2017-11-04T20:38:30.129Z,67.33
2017-11-04T20:40:31.826Z,67.36
2017-11-04T20:42:33.479Z,67.35
2017-11-04T20:44:35.035Z,67.37
2017-11-04T20:46:36.674Z,67.38
2017-11-04T20:48:38.316Z,67.35
2017-11-04T20:50:39.979Z,67.33
2017-11-04T20:52:41.635Z,67.35
2017-11-04T20:54:44.110Z,67.37
2017-11-04T20:56:45.855Z,67.38
2017-11-04T20:58:47.420Z,67.36
2017-11-04T21:00:49.063Z,67.38
2017-11-04T21:02:50.620Z,67.46
2017-11-04T21:04:52.156Z,67.44
2017-11-04T21:06:53.811Z,67.46
2017-11-04T21:08:55.551Z,67.47
2017-11-04T21:10:57.145Z,67.48
2017-11-04T21:12:58.666Z,67.46
2017-11-04T21:15:00.326Z,67.43
2017-11-04T21:17:01.877Z,67.51
2017-11-04T21:19:03.530Z,67.44
2017-11-04T21:21:05.031Z,67.43
2017-11-04T21:23:06.731Z,67.47
2017-11-04T21:25:08.486Z,67.32
2017-11-04T21:27:10.256Z,67.19
2017-11-04T21:29:11.904Z,67.06
2017-11-04T21:31:13.449Z,66.85
2017-11-04T21:33:15.103Z,66.80
2017-11-04T21:35:16.630Z,66.75
2017-11-04T21:37:19.334Z,66.64
2017-11-04T21:39:20.880Z,66.42
2017-11-04T21:41:22.529Z,66.40
2017-11-04T21:43:25.109Z,66.44
2017-11-04T21:45:26.740Z,66.32
2017-11-04T21:47:28.524Z,66.25
2017-11-04T21:49:30.157Z,66.19
2017-11-04T21:51:31.788Z,66.07
2017-11-04T21:53:33.130Z,66.15
2017-11-04T21:55:34.705Z,66.11
2017-11-04T21:57:36.378Z,66.10
2017-11-04T21:59:38.423Z,66.13
2017-11-04T22:01:39.989Z,66.17
2017-11-04T22:03:41.640Z,66.17
2017-11-04T22:05:43.187Z,66.14
2017-11-04T22:07:44.947Z,66.18
2017-11-04T22:09:46.593Z,66.16
2017-11-04T22:11:48.128Z,66.10
2017-11-04T22:13:49.800Z,66.14
2017-11-04T22:15:51.397Z,66.15
2017-11-04T22:17:55.343Z,66.17
2017-11-04T22:19:57.016Z,66.03
2017-11-04T22:21:58.444Z,66.05
2017-11-04T22:24:00.211Z,66.17
2017-11-04T22:26:01.867Z,66.14
2017-11-04T22:28:03.618Z,66.22
2017-11-04T22:30:05.266Z,66.32
2017-11-04T22:32:06.935Z,66.37
2017-11-04T22:34:08.495Z,66.44
2017-11-04T22:36:10.223Z,66.50
2017-11-04T22:38:11.771Z,66.56
2017-11-04T22:40:13.319Z,66.60
2017-11-04T22:42:15.286Z,66.68
2017-11-04T22:44:16.846Z,66.74
2017-11-04T22:46:18.489Z,66.76
2017-11-04T22:48:20.466Z,66.80
2017-11-04T22:50:22.108Z,66.81
2017-11-04T22:52:23.558Z,66.89
2017-11-04T22:54:25.081Z,66.92
2017-11-04T22:56:26.582Z,66.94
2017-11-04T22:58:28.117Z,66.97
2017-11-04T23:00:29.855Z,66.93
2017-11-04T23:02:31.812Z,66.95
2017-11-04T23:04:33.499Z,67.01
2017-11-04T23:06:34.906Z,67.04
2017-11-04T23:08:36.564Z,67.04
2017-11-04T23:10:38.223Z,67.05
2017-11-04T23:12:39.873Z,67.12
2017-11-04T23:14:41.523Z,67.11
2017-11-04T23:16:43.290Z,67.12
2017-11-04T23:18:44.954Z,67.09
2017-11-04T23:20:46.605Z,67.15
2017-11-04T23:22:48.250Z,67.09
2017-11-04T23:24:49.894Z,67.20
2017-11-04T23:26:51.455Z,67.18
2017-11-04T23:28:52.955Z,67.20
2017-11-04T23:30:54.642Z,67.19
2017-11-04T23:32:56.226Z,67.17
2017-11-04T23:34:58.687Z,67.18
2017-11-04T23:37:00.439Z,67.18
2017-11-04T23:39:02.098Z,67.25
2017-11-04T23:41:03.750Z,67.25
2017-11-04T23:43:05.381Z,67.19
2017-11-04T23:45:07.033Z,67.19
2017-11-04T23:47:08.606Z,67.26
2017-11-04T23:49:10.256Z,67.25
2017-11-04T23:51:11.798Z,67.23
2017-11-04T23:53:13.662Z,67.25
2017-11-04T23:55:15.196Z,67.22
2017-11-04T23:57:16.585Z,67.20
2017-11-04T23:59:18.091Z,67.23
